Time;durP1;ratioP1;P1;durP2;ratioP2;P2;SDS_P1;SDS_P2;PMS_P1;PMS_P2;Temp;Humidity;BMP_temperature;BMP_pressure;BME280_temperature;BME280_humidity;BME280_pressure;Samples;Min_cycle;Max_cycle;Signal;HPM_P1;HPM_P2
2023/04/04 00:00:38;;;;;;;3.87;1.60;;;;;;;-3.61;100.00;102424.09;4938415;28;20071;-78
2023/04/04 00:03:05;;;;;;;6.97;1.90;;;;;;;-3.63;100.00;102429.13;4951031;28;20054;-80
2023/04/04 00:05:34;;;;;;;2.27;1.60;;;;;;;-3.64;100.00;102429.03;4956231;28;20038;-80
2023/04/04 00:08:02;;;;;;;3.57;1.80;;;;;;;-3.68;100.00;102427.94;4938661;29;20094;-80
2023/04/04 00:10:29;;;;;;;1.70;1.23;;;;;;;-3.68;100.00;102425.38;4933654;28;20134;-79
2023/04/04 00:12:55;;;;;;;5.03;2.10;;;;;;;-3.74;100.00;102419.78;4954743;28;20054;-80
2023/04/04 00:15:22;;;;;;;4.70;2.13;;;;;;;-3.74;100.00;102418.09;4953098;28;20040;-80
2023/04/04 00:17:49;;;;;;;3.77;1.77;;;;;;;-3.79;100.00;102413.41;4954693;28;20039;-80
2023/04/04 00:20:16;;;;;;;9.50;2.20;;;;;;;-3.81;100.00;102409.84;4936982;28;20546;-79
2023/04/04 00:22:42;;;;;;;5.10;1.50;;;;;;;-3.84;100.00;102412.25;4951018;28;20038;-79
2023/04/04 00:25:09;;;;;;;2.07;1.67;;;;;;;-3.82;100.00;102401.22;4939452;28;20034;-79
2023/04/04 00:27:36;;;;;;;5.20;2.03;;;;;;;-3.77;100.00;102404.09;4955853;28;20463;-80
2023/04/04 00:30:03;;;;;;;3.50;1.37;;;;;;;-3.82;100.00;102400.31;4940930;28;20499;-80
2023/04/04 00:32:30;;;;;;;2.37;1.50;;;;;;;-3.85;100.00;102400.13;4969382;28;20035;-79
2023/04/04 00:34:56;;;;;;;2.30;1.33;;;;;;;-3.85;100.00;102400.13;4957792;28;20047;-79
2023/04/04 00:37:23;;;;;;;2.73;1.40;;;;;;;-3.83;100.00;102396.84;4957986;28;20031;-78
2023/04/04 00:39:50;;;;;;;4.47;1.40;;;;;;;-3.76;100.00;102392.97;4975033;28;20051;-78
2023/04/04 00:42:17;;;;;;;5.20;1.87;;;;;;;-3.78;100.00;102392.00;4973517;28;20456;-79
2023/04/04 00:44:44;;;;;;;3.03;1.17;;;;;;;-3.89;100.00;102392.97;4939577;28;20426;-79
2023/04/04 00:47:10;;;;;;;3.67;1.70;;;;;;;-3.96;100.00;102392.53;4940987;28;20043;-78
2023/04/04 00:49:37;;;;;;;3.63;1.50;;;;;;;-3.99;100.00;102397.53;4940673;28;20495;-80
2023/04/04 00:52:06;;;;;;;4.60;1.73;;;;;;;-4.03;100.00;102387.81;4939686;28;20138;-80
2023/04/04 00:54:33;;;;;;;3.17;1.43;;;;;;;-4.09;100.00;102379.66;4940589;28;20073;-80
2023/04/04 00:57:00;;;;;;;2.73;1.40;;;;;;;-4.18;100.00;102383.31;4956549;28;20031;-80
2023/04/04 00:59:27;;;;;;;4.13;1.70;;;;;;;-4.23;100.00;102374.34;4943677;28;20041;-80
2023/04/04 01:01:54;;;;;;;8.80;1.87;;;;;;;-4.19;100.00;102377.25;4952226;28;20043;-79
2023/04/04 01:04:21;;;;;;;3.40;1.63;;;;;;;-4.18;100.00;102383.31;4924035;28;20066;-80
2023/04/04 01:06:49;;;;;;;2.60;1.40;;;;;;;-4.22;100.00;102382.19;4955780;28;20035;-80
2023/04/04 01:09:16;;;;;;;3.53;1.70;;;;;;;-4.21;100.00;102381.38;4921409;28;20052;-79
2023/04/04 01:11:43;;;;;;;3.17;1.50;;;;;;;-4.11;100.00;102377.75;4962038;28;20046;-79
2023/04/04 01:14:10;;;;;;;2.37;1.60;;;;;;;-4.04;100.00;102374.75;4937966;28;20591;-79
2023/04/04 01:16:37;;;;;;;4.07;1.90;;;;;;;-4.06;100.00;102374.66;4939717;28;20130;-79
2023/04/04 01:19:07;;;;;;;2.77;1.60;;;;;;;-4.16;100.00;102369.69;4939582;28;20496;-78
2023/04/04 01:21:35;;;;;;;2.60;1.40;;;;;;;-4.17;100.00;102372.19;4946703;28;20138;-78
2023/04/04 01:24:03;;;;;;;2.63;1.40;;;;;;;-4.23;100.00;102366.63;4971087;28;20042;-78
2023/04/04 01:26:30;;;;;;;2.97;1.57;;;;;;;-4.32;100.00;102372.94;4954362;28;20042;-79
2023/04/04 01:28:57;;;;;;;6.10;1.47;;;;;;;-4.37;100.00;102370.84;4952073;28;20039;-78
2023/04/04 01:31:30;;;;;;;2.77;1.57;;;;;;;-4.26;100.00;102365.63;4937229;28;20051;-79
2023/04/04 01:34:09;;;;;;;3.20;1.73;;;;;;;-4.16;100.00;102371.38;4939317;28;20058;-79
2023/04/04 01:36:46;;;;;;;4.30;1.57;;;;;;;-4.19;100.00;102371.19;4944181;28;20066;-78
2023/04/04 01:39:18;;;;;;;3.47;1.70;;;;;;;-4.25;100.00;102366.50;4952706;28;20051;-79
2023/04/04 01:41:47;;;;;;;4.07;1.67;;;;;;;-4.42;100.00;102367.06;4969534;28;20493;-78
2023/04/04 01:44:16;;;;;;;2.97;1.53;;;;;;;-4.46;100.00;102371.13;4937080;28;20049;-79
2023/04/04 01:46:42;;;;;;;3.13;1.50;;;;;;;-4.53;100.00;102375.00;4937600;28;20035;-80
2023/04/04 01:49:10;;;;;;;5.83;1.80;;;;;;;-4.60;100.00;102367.63;4934623;28;20050;-79
2023/04/04 01:51:37;;;;;;;3.73;1.53;;;;;;;-4.59;100.00;102364.25;4953832;28;20105;-79
2023/04/04 01:54:04;;;;;;;3.03;1.23;;;;;;;-4.63;100.00;102375.13;4937183;28;20050;-79
2023/04/04 01:56:31;;;;;;;3.90;1.77;;;;;;;-4.69;100.00;102366.13;4939353;28;20125;-80
2023/04/04 01:58:58;;;;;;;3.83;2.23;;;;;;;-4.74;100.00;102363.19;4932185;29;20138;-80
2023/04/04 02:01:25;;;;;;;1.90;1.40;;;;;;;-4.74;100.00;102363.19;4953383;28;20141;-80
2023/04/04 02:04:22;;;;;;;2.23;1.30;;;;;;;-4.77;100.00;102360.44;4970427;23;20043;-79
2023/04/04 02:07:20;;;;;;;2.20;1.57;;;;;;;-4.81;100.00;102354.16;4969796;28;20042;-82
2023/04/04 02:09:53;;;;;;;2.97;1.40;;;;;;;-4.81;100.00;102358.41;4942311;28;20063;-82
2023/04/04 02:12:21;;;;;;;3.33;1.33;;;;;;;-4.73;100.00;102356.34;4959038;28;20041;-81
2023/04/04 02:14:48;;;;;;;4.90;1.50;;;;;;;-4.79;100.00;102355.94;4976163;28;20042;-81
2023/04/04 02:17:15;;;;;;;2.67;1.43;;;;;;;-4.76;100.00;102356.16;4944596;28;20039;-81
2023/04/04 02:19:41;;;;;;;2.77;1.60;;;;;;;-4.86;100.00;102363.28;4965503;28;20069;-80
2023/04/04 02:22:08;;;;;;;3.03;1.20;;;;;;;-4.88;100.00;102357.09;4993661;28;20403;-81
2023/04/04 02:24:34;;;;;;;1.97;1.30;;;;;;;-4.95;100.00;102366.91;4960923;28;20043;-82
2023/04/04 02:27:01;;;;;;;2.17;1.50;;;;;;;-5.00;100.00;102365.69;4961264;28;20089;-81
2023/04/04 02:29:28;;;;;;;3.50;1.47;;;;;;;-5.00;100.00;102353.69;4979135;28;20043;-81
2023/04/04 02:31:54;;;;;;;4.47;1.70;;;;;;;-5.02;100.00;102351.78;4958601;28;20334;-81
2023/04/04 02:34:21;;;;;;;3.30;1.77;;;;;;;-5.08;100.00;102353.94;4946204;28;20050;-80
2023/04/04 02:36:48;;;;;;;4.03;1.30;;;;;;;-5.13;100.00;102346.81;4950566;28;20051;-80
2023/04/04 02:39:14;;;;;;;3.07;1.73;;;;;;;-5.16;100.00;102345.66;4938149;28;20061;-80
2023/04/04 02:41:41;;;;;;;3.73;1.20;;;;;;;-5.17;100.00;102346.47;4937758;28;20074;-81
2023/04/04 02:44:09;;;;;;;3.50;1.40;;;;;;;-5.23;100.00;102346.03;4967496;28;20038;-81
2023/04/04 02:46:35;;;;;;;2.37;1.40;;;;;;;-5.22;100.00;102340.09;4970111;28;20036;-81
2023/04/04 02:49:03;;;;;;;3.13;1.37;;;;;;;-5.25;100.00;102335.63;4963310;28;20035;-81
2023/04/04 02:51:30;;;;;;;3.73;1.50;;;;;;;-5.19;100.00;102335.16;4942127;28;20049;-81
2023/04/04 02:53:56;;;;;;;4.87;2.10;;;;;;;-5.21;100.00;102337.63;4966738;28;20030;-81
2023/04/04 02:56:23;;;;;;;3.80;1.50;;;;;;;-5.21;100.00;102329.91;4982067;28;20030;-81
2023/04/04 02:58:49;;;;;;;2.27;1.33;;;;;;;-5.32;100.00;102335.09;4950822;28;20050;-80
2023/04/04 03:01:16;;;;;;;3.17;1.20;;;;;;;-5.39;100.00;102331.16;4951242;28;20133;-80
2023/04/04 03:03:43;;;;;;;2.87;1.30;;;;;;;-5.25;100.00;102330.47;4951605;28;20039;-81
2023/04/04 03:06:10;;;;;;;3.63;1.60;;;;;;;-5.21;100.00;102323.88;4953745;28;20464;-80
2023/04/04 03:08:37;;;;;;;3.97;1.50;;;;;;;-5.31;100.00;102318.84;4953506;28;20046;-80
2023/04/04 03:11:04;;;;;;;4.03;1.50;;;;;;;-5.29;100.00;102325.91;4943354;28;20056;-81
2023/04/04 03:13:31;;;;;;;4.60;1.67;;;;;;;-5.27;100.00;102316.59;4953091;28;20510;-79
2023/04/04 03:16:03;;;;;;;3.37;1.30;;;;;;;-5.41;100.00;102315.63;4953777;28;20121;-79
2023/04/04 03:18:30;;;;;;;4.33;1.83;;;;;;;-5.47;100.00;102311.72;4964961;28;20038;-79
2023/04/04 03:20:57;;;;;;;2.60;1.57;;;;;;;-5.45;100.00;102313.63;4973147;28;20042;-81
2023/04/04 03:23:24;;;;;;;3.10;1.60;;;;;;;-5.48;100.00;102315.97;4960419;28;20038;-81
2023/04/04 03:25:50;;;;;;;4.60;1.20;;;;;;;-5.53;100.00;102308.72;4954798;28;20046;-81
2023/04/04 03:28:18;;;;;;;2.97;1.33;;;;;;;-5.52;100.00;102303.69;4940472;28;20042;-82
2023/04/04 03:30:46;;;;;;;4.37;1.60;;;;;;;-5.59;100.00;102306.59;4962904;28;20050;-81
2023/04/04 03:33:12;;;;;;;4.63;1.67;;;;;;;-5.63;100.00;102299.47;4939192;28;20055;-80
2023/04/04 03:35:39;;;;;;;3.23;1.40;;;;;;;-5.56;100.00;102295.63;4956413;28;20050;-81
2023/04/04 03:38:08;;;;;;;2.97;1.23;;;;;;;-5.53;100.00;102301.00;4939943;28;20042;-80
2023/04/04 03:40:35;;;;;;;2.50;1.43;;;;;;;-5.57;100.00;102296.41;4947841;28;20053;-81
2023/04/04 03:43:02;;;;;;;2.90;1.30;;;;;;;-5.68;100.00;102295.66;4956372;28;20046;-79
2023/04/04 03:45:29;;;;;;;6.37;2.50;;;;;;;-5.73;100.00;102297.00;4944079;28;20054;-81
2023/04/04 03:47:55;;;;;;;3.33;2.03;;;;;;;-5.63;100.00;102285.66;4948507;28;20043;-81
2023/04/04 03:50:22;;;;;;;4.70;1.50;;;;;;;-5.66;100.00;102291.50;4977831;28;20047;-81
2023/04/04 03:52:49;;;;;;;4.03;1.60;;;;;;;-5.67;100.00;102293.19;4965214;28;20058;-81
2023/04/04 03:55:16;;;;;;;3.43;1.30;;;;;;;-5.70;100.00;102289.50;4966899;28;20053;-81
2023/04/04 03:57:43;;;;;;;3.90;1.47;;;;;;;-5.69;100.00;102294.75;4967054;28;20129;-81
2023/04/04 04:00:10;;;;;;;5.43;1.30;;;;;;;-5.73;100.00;102287.59;4977898;28;20436;-80
2023/04/04 04:02:37;;;;;;;3.87;1.30;;;;;;;-5.72;100.00;102291.06;4966508;28;20044;-80
2023/04/04 04:05:05;;;;;;;2.13;1.20;;;;;;;-5.74;100.00;102290.94;4977956;28;20569;-81
2023/04/04 04:07:31;;;;;;;1.50;1.40;;;;;;;-5.79;100.00;102297.47;4963619;28;20038;-80
2023/04/04 04:09:58;;;;;;;2.50;1.30;;;;;;;-5.81;100.00;102287.84;4946493;28;20131;-81
2023/04/04 04:12:25;;;;;;;3.07;1.23;;;;;;;-5.83;100.00;102287.72;4997037;28;20646;-80
2023/04/04 04:14:54;;;;;;;4.33;1.47;;;;;;;-5.89;100.00;102292.44;4976581;28;20114;-80
2023/04/04 04:17:21;;;;;;;6.30;1.30;;;;;;;-5.95;100.00;102294.63;4967105;28;20110;-80
2023/04/04 04:19:47;;;;;;;4.03;1.20;;;;;;;-5.93;100.00;102290.47;4959024;28;20645;-80
2023/04/04 04:22:15;;;;;;;3.20;1.40;;;;;;;-6.00;100.00;102295.94;4946759;28;20045;-80
2023/04/04 04:24:49;;;;;;;2.07;1.30;;;;;;;-5.93;100.00;102287.91;4957323;28;20110;-84
2023/04/04 04:27:18;;;;;;;2.47;1.30;;;;;;;-6.02;100.00;102289.81;4958982;28;20297;-80
2023/04/04 04:29:45;;;;;;;2.87;1.47;;;;;;;-5.90;100.00;102287.22;4959055;28;20049;-80
2023/04/04 04:32:15;;;;;;;2.70;1.70;;;;;;;-5.98;100.00;102289.22;4943852;28;20140;-79
2023/04/04 04:34:42;;;;;;;4.37;1.93;;;;;;;-5.90;100.00;102289.78;4971532;28;20070;-80
2023/04/04 04:37:09;;;;;;;2.00;1.60;;;;;;;-5.99;100.00;102288.34;4958218;28;20038;-79
2023/04/04 04:39:36;;;;;;;1.60;1.20;;;;;;;-6.03;100.00;102286.34;4973083;28;21393;-80
2023/04/04 04:42:02;;;;;;;2.60;1.30;;;;;;;-6.03;100.00;102290.59;4939518;28;20389;-80
2023/04/04 04:44:29;;;;;;;3.67;1.33;;;;;;;-6.05;100.00;102287.03;4964289;28;20121;-80
2023/04/04 04:46:56;;;;;;;2.07;1.33;;;;;;;-6.02;100.00;102282.09;4979587;28;20293;-81
2023/04/04 04:49:22;;;;;;;2.80;1.30;;;;;;;-6.03;100.00;102276.06;4945278;28;20321;-80
2023/04/04 04:51:50;;;;;;;2.50;1.50;;;;;;;-6.02;100.00;102282.97;4960134;28;20046;-80
2023/04/04 04:54:17;;;;;;;3.50;2.30;;;;;;;-6.05;100.00;102284.47;4988726;28;20106;-81
2023/04/04 04:56:43;;;;;;;4.00;2.00;;;;;;;-6.05;100.00;102284.47;4953107;28;20332;-81
2023/04/04 04:59:11;;;;;;;4.90;1.93;;;;;;;-6.02;100.00;102289.81;4955124;28;20042;-81
2023/04/04 05:01:38;;;;;;;3.13;1.73;;;;;;;-6.00;100.00;102290.81;4955190;28;20066;-80
2023/04/04 05:04:05;;;;;;;4.13;1.73;;;;;;;-5.96;100.00;102282.53;4965615;28;20038;-79
2023/04/04 05:06:31;;;;;;;2.03;1.13;;;;;;;-5.91;100.00;102282.84;4992298;28;20035;-79
2023/04/04 05:08:58;;;;;;;2.27;1.37;;;;;;;-5.90;100.00;102277.78;4954489;28;20077;-79
2023/04/04 05:11:25;;;;;;;1.80;1.30;;;;;;;-5.85;100.00;102286.72;4984276;28;20293;-78
2023/04/04 05:13:51;;;;;;;4.37;1.60;;;;;;;-5.81;100.00;102282.69;4941585;28;20535;-79
2023/04/04 05:16:19;;;;;;;5.30;1.80;;;;;;;-5.79;100.00;102278.56;4953563;28;20488;-78
2023/04/04 05:18:49;;;;;;;1.30;1.10;;;;;;;-5.70;100.00;102279.22;4975721;28;20043;-81
2023/04/04 05:21:16;;;;;;;5.87;1.73;;;;;;;-5.70;100.00;102284.38;4990876;28;20042;-79
2023/04/04 05:23:44;;;;;;;1.97;1.43;;;;;;;-5.71;100.00;102280.00;4973573;28;20514;-79
2023/04/04 05:26:10;;;;;;;2.17;1.60;;;;;;;-5.67;100.00;102288.03;4977403;28;20061;-79
2023/04/04 05:28:37;;;;;;;3.27;1.40;;;;;;;-5.54;100.00;102288.91;4987129;28;20046;-79
2023/04/04 05:31:03;;;;;;;3.00;1.60;;;;;;;-5.41;100.00;102289.84;4969202;28;20039;-78
2023/04/04 05:33:30;;;;;;;5.30;2.53;;;;;;;-5.30;100.00;102293.19;4943319;28;20046;-79
2023/04/04 05:36:00;;;;;;;34.13;14.90;;;;;;;-5.23;100.00;102292.81;4956660;28;20416;-80
2023/04/04 05:38:28;;;;;;;11.83;4.80;;;;;;;-5.30;100.00;102294.84;4959713;28;20451;-80
2023/04/04 05:40:55;;;;;;;9.80;4.03;;;;;;;-5.25;100.00;102298.66;4969436;28;20125;-80
2023/04/04 05:43:21;;;;;;;5.27;2.93;;;;;;;-5.18;100.00;102295.72;4950886;28;20039;-80
2023/04/04 05:45:48;;;;;;;4.67;2.00;;;;;;;-5.17;100.00;102303.56;4953475;28;20047;-80
2023/04/04 05:48:15;;;;;;;3.87;1.70;;;;;;;-5.10;100.00;102303.19;4966854;28;20126;-79
2023/04/04 05:50:44;;;;;;;2.80;1.60;;;;;;;-5.11;100.00;102300.50;4970557;28;20038;-80
2023/04/04 05:53:11;;;;;;;2.90;1.70;;;;;;;-5.08;100.00;102304.97;4954815;28;20050;-79
2023/04/04 05:55:38;;;;;;;3.73;1.90;;;;;;;-4.91;100.00;102301.88;4973298;28;20420;-79
2023/04/04 05:58:04;;;;;;;4.80;2.10;;;;;;;-4.91;100.00;102296.72;4971919;28;20039;-79
2023/04/04 06:00:31;;;;;;;2.97;2.27;;;;;;;-4.88;100.00;102297.78;4961160;28;20038;-81
2023/04/04 06:02:58;;;;;;;4.50;1.93;;;;;;;-4.67;100.00;102297.47;4941336;28;20046;-80
2023/04/04 06:05:25;;;;;;;5.77;2.37;;;;;;;-4.61;100.00;102297.91;4975487;28;20046;-80
2023/04/04 06:07:52;;;;;;;3.83;2.90;;;;;;;-4.72;100.00;102296.25;4957671;28;20073;-81
2023/04/04 06:10:19;;;;;;;8.07;5.23;;;;;;;-4.61;100.00;102295.31;4966894;28;20042;-80
2023/04/04 06:12:45;;;;;;;11.70;5.93;;;;;;;-4.61;100.00;102300.47;4949022;28;20061;-79
2023/04/04 06:15:12;;;;;;;24.00;10.40;;;;;;;-4.54;100.00;102306.16;4953088;28;20055;-80
2023/04/04 06:17:39;;;;;;;12.57;5.90;;;;;;;-4.49;100.00;102301.28;4952032;28;20130;-79
2023/04/04 06:20:07;;;;;;;6.63;2.83;;;;;;;-4.36;100.00;102303.00;4970707;28;20035;-79
2023/04/04 06:22:33;;;;;;;5.57;2.90;;;;;;;-4.34;100.00;102304.88;4967578;28;20084;-82
2023/04/04 06:25:00;;;;;;;4.17;1.53;;;;;;;-3.43;100.00;102296.06;4950477;28;20060;-81
2023/04/04 06:27:27;;;;;;;4.13;1.50;;;;;;;-2.08;100.00;102298.09;4957542;28;20049;-79
2023/04/04 06:29:53;;;;;;;3.90;1.70;;;;;;;-0.61;100.00;102286.16;4937771;28;20050;-80
2023/04/04 06:32:21;;;;;;;4.30;1.00;;;;;;;0.78;100.00;102292.88;4961580;28;20050;-80
2023/04/04 06:34:48;;;;;;;3.00;1.60;;;;;;;1.98;97.66;102278.03;4940097;28;20586;-81
2023/04/04 06:37:15;;;;;;;3.17;1.30;;;;;;;3.13;89.41;102278.09;4978929;28;20468;-81
2023/04/04 06:39:42;;;;;;;2.20;1.30;;;;;;;3.71;82.57;102271.38;4958461;28;20512;-80
2023/04/04 06:42:09;;;;;;;2.70;1.47;;;;;;;4.57;74.07;102272.34;4957354;28;20042;-79
2023/04/04 06:44:35;;;;;;;2.07;1.30;;;;;;;5.02;72.14;102252.72;4957395;28;20054;-81
2023/04/04 06:47:02;;;;;;;4.17;1.50;;;;;;;5.23;64.54;102260.28;4955476;28;20042;-79
2023/04/04 06:49:29;;;;;;;1.80;1.10;;;;;;;5.13;63.99;102265.19;4973842;28;20439;-80
2023/04/04 06:51:55;;;;;;;3.77;1.30;;;;;;;5.66;64.80;102264.03;4964542;28;20074;-80
2023/04/04 06:54:22;;;;;;;3.20;1.40;;;;;;;6.02;64.01;102253.56;4980955;28;20034;-80
2023/04/04 06:56:49;;;;;;;2.40;1.63;;;;;;;6.11;60.53;102252.88;4957191;28;20039;-80
2023/04/04 06:59:16;;;;;;;4.65;2.08;;;;;;;6.49;61.09;102252.03;4964641;28;20035;-80
2023/04/04 07:01:43;;;;;;;3.45;1.50;;;;;;;6.57;62.36;102253.94;4943298;28;20577;-80
2023/04/04 07:04:10;;;;;;;3.30;1.67;;;;;;;6.94;58.46;102261.69;4973107;28;20038;-80
2023/04/04 07:06:36;;;;;;;4.80;3.47;;;;;;;6.85;60.44;102250.13;4956948;28;20564;-82
2023/04/04 07:09:06;;;;;;;4.22;1.80;;;;;;;6.92;61.02;102260.78;4934754;28;20122;-81
2023/04/04 07:11:54;;;;;;;3.72;3.05;;;;;;;6.96;59.61;102251.22;4958437;28;20069;-81
2023/04/04 07:14:23;;;;;;;3.78;2.42;;;;;;;6.97;61.03;102245.09;4939534;28;20038;-80
2023/04/04 07:16:51;;;;;;;3.30;1.58;;;;;;;6.52;60.81;102251.19;4983849;28;20034;-79
2023/04/04 07:19:18;;;;;;;4.30;3.90;;;;;;;6.56;61.54;102245.19;4964092;28;20043;-80
2023/04/04 07:21:44;;;;;;;4.20;1.88;;;;;;;6.64;61.94;102250.56;4953328;28;20046;-80
2023/04/04 07:24:11;;;;;;;4.68;1.63;;;;;;;6.33;58.66;102249.03;4961005;28;20050;-80
2023/04/04 07:26:39;;;;;;;4.35;1.60;;;;;;;6.05;58.78;102248.38;4970830;28;20102;-80
2023/04/04 07:29:06;;;;;;;3.30;1.60;;;;;;;5.98;58.84;102242.97;4986933;28;20103;-80
2023/04/04 07:31:33;;;;;;;2.70;1.40;;;;;;;5.58;64.23;102245.47;4974195;28;20070;-79
2023/04/04 07:34:00;;;;;;;3.77;1.80;;;;;;;4.27;63.10;102249.63;4991346;28;20080;-80
2023/04/04 07:36:27;;;;;;;4.97;2.50;;;;;;;4.64;65.74;102242.91;4988552;28;20034;-81
2023/04/04 07:38:54;;;;;;;6.57;2.07;;;;;;;4.45;64.97;102244.06;4963948;28;20049;-81
2023/04/04 07:41:21;;;;;;;3.50;1.50;;;;;;;3.71;63.95;102248.75;4974123;28;20046;-79
2023/04/04 07:43:48;;;;;;;2.17;1.30;;;;;;;3.71;65.92;102240.00;4971581;28;20133;-79
2023/04/04 07:46:15;;;;;;;2.50;1.37;;;;;;;3.60;65.95;102250.09;4955376;28;20042;-88
2023/04/04 07:48:43;;;;;;;3.30;1.23;;;;;;;3.57;68.22;102237.81;4946997;28;20045;-80
2023/04/04 07:51:09;;;;;;;1.80;1.30;;;;;;;3.73;70.55;102233.09;4954708;28;20041;-79
2023/04/04 07:53:36;;;;;;;3.00;1.30;;;;;;;3.72;71.97;102234.81;4981328;28;20047;-79
2023/04/04 07:56:05;;;;;;;2.10;1.17;;;;;;;3.76;69.00;102231.47;4976857;28;20570;-79
2023/04/04 07:58:33;;;;;;;2.20;1.10;;;;;;;3.73;70.63;102230.47;4960290;28;20043;-80
2023/04/04 08:01:00;;;;;;;2.00;0.97;;;;;;;3.27;66.73;102236.75;4960516;28;20047;-80
2023/04/04 08:03:27;;;;;;;3.50;1.00;;;;;;;3.16;67.95;102231.19;4947107;28;20439;-79
2023/04/04 08:05:54;;;;;;;2.03;1.30;;;;;;;3.30;72.27;102240.38;4955088;28;20070;-80
2023/04/04 08:08:21;;;;;;;3.20;1.20;;;;;;;3.09;68.34;102237.03;5054647;23;20483;-81
2023/04/04 08:10:48;;;;;;;6.37;1.60;;;;;;;3.11;70.43;102232.72;4956351;28;20051;-81
2023/04/04 08:13:14;;;;;;;2.63;1.10;;;;;;;2.84;69.22;102235.25;4953688;28;20133;-79
2023/04/04 08:15:41;;;;;;;2.83;1.63;;;;;;;2.97;72.33;102234.00;4925320;28;20047;-80
2023/04/04 08:18:08;;;;;;;3.40;1.17;;;;;;;3.02;66.83;102235.03;4942238;28;20142;-80
2023/04/04 08:20:35;;;;;;;3.30;1.50;;;;;;;2.85;67.64;102231.81;4939088;28;20093;-80
2023/04/04 08:23:02;;;;;;;1.77;1.17;;;;;;;2.65;69.21;102225.88;4947943;28;20046;-80
2023/04/04 08:25:29;;;;;;;2.77;1.17;;;;;;;2.71;69.38;102233.94;4929559;28;20046;-80
2023/04/04 08:27:56;;;;;;;3.97;1.73;;;;;;;3.08;71.37;102233.53;4921336;28;20134;-81
2023/04/04 08:30:22;;;;;;;2.67;0.90;;;;;;;3.20;72.07;102225.25;4956408;28;20039;-80
2023/04/04 08:32:49;;;;;;;2.00;1.13;;;;;;;3.22;66.94;102231.41;4935950;28;20054;-79
2023/04/04 08:35:21;;;;;;;2.23;1.03;;;;;;;3.14;65.92;102224.13;4937976;28;20527;-80
2023/04/04 08:37:48;;;;;;;2.43;1.27;;;;;;;3.21;62.54;102229.63;4933634;28;20058;-81
2023/04/04 08:40:15;;;;;;;2.77;1.30;;;;;;;3.21;64.71;102223.53;4925095;28;20046;-80
2023/04/04 08:42:44;;;;;;;1.70;1.37;;;;;;;3.45;66.65;102218.22;4954647;28;20515;-82
2023/04/04 08:45:11;;;;;;;5.30;1.17;;;;;;;3.50;60.04;102216.66;4921346;28;20627;-82
2023/04/04 08:47:38;;;;;;;3.00;1.10;;;;;;;3.58;65.41;102216.06;4949534;28;20053;-82
2023/04/04 08:50:06;;;;;;;1.63;0.80;;;;;;;3.89;63.61;102217.97;4965144;28;20040;-81
2023/04/04 08:52:36;;;;;;;1.97;1.00;;;;;;;3.86;63.64;102210.00;4953602;28;20127;-82
2023/04/04 08:55:04;;;;;;;5.50;1.70;;;;;;;4.06;63.58;102210.63;4925625;28;20232;-82
2023/04/04 08:57:32;;;;;;;1.40;0.80;;;;;;;4.31;57.73;102225.34;4923878;28;20043;-82
2023/04/04 08:59:59;;;;;;;2.47;0.90;;;;;;;4.46;58.44;102207.50;4938947;28;20043;-82
2023/04/04 09:02:34;;;;;;;1.40;0.80;;;;;;;4.75;54.76;102207.44;4919842;28;20043;-82
2023/04/04 09:05:01;;;;;;;1.97;1.20;;;;;;;4.78;53.75;102204.88;4923987;28;20042;-82
2023/04/04 09:07:33;;;;;;;1.30;1.00;;;;;;;5.11;55.36;102199.69;4967162;28;20045;-83
2023/04/04 09:10:03;;;;;;;1.67;1.00;;;;;;;5.25;50.07;102198.31;4942692;28;20042;-83
2023/04/04 09:12:31;;;;;;;1.93;0.80;;;;;;;5.11;51.14;102193.56;4945674;28;20133;-82
2023/04/04 09:14:59;;;;;;;2.10;1.20;;;;;;;5.39;51.97;102201.31;4948213;28;20508;-82
2023/04/04 09:17:26;;;;;;;1.33;1.20;;;;;;;5.45;49.24;102206.66;4938843;28;20050;-82
2023/04/04 09:19:53;;;;;;;3.47;1.20;;;;;;;5.70;45.87;102197.69;4953388;28;20045;-83
2023/04/04 09:22:20;;;;;;;0.97;0.83;;;;;;;5.57;45.29;102183.41;4923160;28;20087;-82
2023/04/04 09:24:49;;;;;;;2.80;1.07;;;;;;;5.36;44.63;102186.34;4922130;28;20039;-82
2023/04/04 09:27:16;;;;;;;1.63;0.80;;;;;;;5.70;47.95;102186.31;4936448;28;20042;-81
2023/04/04 09:29:42;;;;;;;2.40;1.10;;;;;;;5.78;44.76;102184.75;4931165;28;20069;-82
2023/04/04 09:32:13;;;;;;;3.03;0.87;;;;;;;6.28;47.48;102178.03;4922471;28;20547;-82
2023/04/04 09:34:40;;;;;;;2.07;0.90;;;;;;;6.42;45.10;102186.22;4936808;28;20045;-82
2023/04/04 09:37:07;;;;;;;3.30;0.90;;;;;;;6.73;45.48;102183.38;4934565;28;20069;-82
2023/04/04 09:39:37;;;;;;;2.70;1.10;;;;;;;7.00;43.71;102172.50;4936097;28;20098;-83
2023/04/04 09:42:06;;;;;;;1.70;0.93;;;;;;;6.59;45.41;102170.81;4921366;28;20340;-81
2023/04/04 09:44:33;;;;;;;3.40;1.30;;;;;;;6.82;45.35;102177.41;4933050;28;20673;-81
2023/04/04 09:47:26;;;;;;;2.27;1.00;;;;;;;7.20;46.07;102167.59;4936655;28;20047;-81
2023/04/04 09:49:59;;;;;;;3.23;1.30;;;;;;;7.26;43.40;102166.81;4942691;28;20429;-81
2023/04/04 09:52:31;;;;;;;1.87;1.03;;;;;;;7.50;43.45;102154.09;4948409;28;20031;-82
2023/04/04 09:54:59;;;;;;;3.33;1.07;;;;;;;7.47;41.96;102159.28;4947107;28;20039;-82
2023/04/04 09:57:34;;;;;;;3.10;1.20;;;;;;;7.05;41.47;102165.56;4959811;28;20126;-83
2023/04/04 10:00:08;;;;;;;3.63;1.00;;;;;;;6.61;44.94;102171.72;4937977;28;20656;-82
2023/04/04 10:02:46;;;;;;;4.03;1.52;;;;;;;7.27;45.26;102166.84;4943190;28;20463;-82
2023/04/04 10:05:13;;;;;;;9.93;5.20;;;;;;;7.54;45.37;102158.50;4937974;28;20409;-81
2023/04/04 10:07:43;;;;;;;2.47;1.03;;;;;;;8.01;42.84;102157.47;4951023;28;20046;-81
2023/04/04 10:10:10;;;;;;;2.50;1.43;;;;;;;7.59;41.63;102150.72;4920365;28;20063;-82
2023/04/04 10:12:37;;;;;;;2.90;1.13;;;;;;;7.88;44.75;102154.66;4964804;28;20062;-81
2023/04/04 10:15:05;;;;;;;4.03;1.47;;;;;;;8.18;42.57;102142.78;4917440;28;20635;-81
2023/04/04 10:17:37;;;;;;;1.30;0.97;;;;;;;8.03;38.91;102134.69;4931807;28;20042;-81
2023/04/04 10:20:13;;;;;;;1.87;0.90;;;;;;;7.77;41.26;102148.34;4917198;28;20575;-81
2023/04/04 10:22:41;;;;;;;1.87;0.90;;;;;;;7.28;40.09;102136.16;4936804;28;20354;-80
2023/04/04 10:25:10;;;;;;;1.10;0.80;;;;;;;6.93;41.05;102132.94;4920288;28;20126;-81
2023/04/04 10:27:37;;;;;;;1.13;0.73;;;;;;;6.71;40.35;102137.78;4932321;28;20488;-82
2023/04/04 10:30:06;;;;;;;1.57;0.87;;;;;;;7.10;39.89;102123.59;4928864;28;20046;-81
2023/04/04 10:32:59;;;;;;;2.30;0.83;;;;;;;7.97;42.80;102116.16;4936793;28;20034;-79
2023/04/04 10:35:27;;;;;;;1.73;1.20;;;;;;;8.27;42.36;102118.31;4926523;28;20047;-81
2023/04/04 10:37:58;;;;;;;4.37;1.40;;;;;;;8.42;40.00;102114.16;4936049;28;20804;-81
2023/04/04 10:40:30;;;;;;;2.93;1.37;;;;;;;8.23;41.12;102122.66;4936352;28;20106;-81
2023/04/04 10:42:58;;;;;;;2.47;0.90;;;;;;;8.27;40.78;102127.09;4945968;29;20571;-84
2023/04/04 10:45:25;;;;;;;1.57;1.07;;;;;;;7.61;39.93;102110.41;4938679;28;20061;-81
2023/04/04 10:47:53;;;;;;;1.33;0.90;;;;;;;7.31;40.65;102110.84;4932216;28;20067;-82
2023/04/04 10:50:20;;;;;;;1.97;0.83;;;;;;;7.01;41.29;102118.19;4943674;28;20046;-81
2023/04/04 10:52:47;;;;;;;4.87;1.47;;;;;;;7.13;42.82;102114.88;4955175;28;20061;-82
2023/04/04 10:55:14;;;;;;;2.73;1.03;;;;;;;6.89;41.01;102112.72;4957278;23;20062;-79
2023/04/04 10:57:43;;;;;;;2.37;1.10;;;;;;;7.56;43.54;102112.06;4955355;23;20038;-80
2023/04/04 11:00:16;;;;;;;3.37;1.10;;;;;;;8.18;41.58;102100.66;5014252;23;20046;-79
2023/04/04 11:02:56;;;;;;;2.90;1.20;;;;;;;8.32;38.37;102079.75;4992888;28;20085;-78
2023/04/04 11:05:39;;;;;;;2.10;1.20;;;;;;;8.52;38.88;102082.66;4938070;28;20055;-79
2023/04/04 11:08:09;;;;;;;2.00;0.93;;;;;;;9.12;38.20;102084.09;4959146;28;20393;-79
2023/04/04 11:10:38;;;;;;;0.87;0.80;;;;;;;9.42;37.75;102081.72;4942508;28;20095;-78
2023/04/04 11:13:22;;;;;;;3.10;0.93;;;;;;;8.07;35.24;102084.75;4929828;29;20051;-78
2023/04/04 11:15:55;;;;;;;4.13;1.50;;;;;;;7.61;38.23;102089.38;4938489;28;20058;-77
2023/04/04 11:18:31;;;;;;;1.90;1.30;;;;;;;7.35;38.95;102090.72;4955625;28;20332;-77
2023/04/04 11:21:04;;;;;;;2.07;1.10;;;;;;;6.94;39.73;102090.94;4960836;28;21112;-77
2023/04/04 11:23:46;;;;;;;1.80;1.03;;;;;;;7.49;42.72;102085.69;4975382;28;20045;-78
2023/04/04 11:26:16;;;;;;;2.37;1.00;;;;;;;7.93;40.57;102074.91;4964555;28;20077;-77
2023/04/04 11:28:45;;;;;;;2.03;1.07;;;;;;;8.17;38.37;102078.72;4946706;28;20074;-78